sensor_id;sensor_type;location;lat;lon;timestamp;P1;durP1;ratioP1;P2;durP2;ratioP2
72785;SDS011;60902;53.876;10.674;2023-03-03T00:00:01;21.57;;;15.37;;
72785;SDS011;60902;53.876;10.674;2023-03-03T00:00:13;21.20;;;15.65;;
72785;SDS011;60902;53.876;10.674;2023-03-03T00:00:24;21.48;;;15.43;;
72785;SDS011;60902;53.876;10.674;2023-03-03T00:00:36;21.48;;;14.88;;
72785;SDS011;60902;53.876;10.674;2023-03-03T00:00:47;21.58;;;14.95;;
72785;SDS011;60902;53.876;10.674;2023-03-03T00:00:59;22.20;;;15.02;;
72785;SDS011;60902;53.876;10.674;2023-03-03T00:01:10;21.23;;;14.63;;
72785;SDS011;60902;53.876;10.674;2023-03-03T00:01:21;21.13;;;14.55;;
72785;SDS011;60902;53.876;10.674;2023-03-03T00:01:34;19.85;;;14.48;;
72785;SDS011;60902;53.876;10.674;2023-03-03T00:01:47;19.75;;;14.45;;
72785;SDS011;60902;53.876;10.674;2023-03-03T00:01:57;19.73;;;14.55;;
72785;SDS011;60902;53.876;10.674;2023-03-03T00:02:08;20.07;;;14.57;;
72785;SDS011;60902;53.876;10.674;2023-03-03T00:02:20;20.45;;;14.70;;
72785;SDS011;60902;53.876;10.674;2023-03-03T00:02:32;19.83;;;14.30;;
72785;SDS011;60902;53.876;10.674;2023-03-03T00:02:43;19.85;;;14.75;;
72785;SDS011;60902;53.876;10.674;2023-03-03T00:02:54;20.27;;;14.75;;
72785;SDS011;60902;53.876;10.674;2023-03-03T00:03:10;20.98;;;14.65;;
72785;SDS011;60902;53.876;10.674;2023-03-03T00:03:24;21.17;;;14.80;;
72785;SDS011;60902;53.876;10.674;2023-03-03T00:03:37;21.25;;;14.63;;
72785;SDS011;60902;53.876;10.674;2023-03-03T00:03:49;21.17;;;14.15;;
72785;SDS011;60902;53.876;10.674;2023-03-03T00:04:00;20.23;;;13.77;;
72785;SDS011;60902;53.876;10.674;2023-03-03T00:04:10;20.23;;;14.15;;
72785;SDS011;60902;53.876;10.674;2023-03-03T00:04:21;20.30;;;14.45;;
72785;SDS011;60902;53.876;10.674;2023-03-03T00:04:32;20.77;;;14.88;;
72785;SDS011;60902;53.876;10.674;2023-03-03T00:04:43;20.20;;;14.48;;
72785;SDS011;60902;53.876;10.674;2023-03-03T00:04:55;20.70;;;14.52;;
72785;SDS011;60902;53.876;10.674;2023-03-03T00:05:07;20.98;;;14.48;;
72785;SDS011;60902;53.876;10.674;2023-03-03T00:05:24;21.10;;;15.15;;
72785;SDS011;60902;53.876;10.674;2023-03-03T00:05:35;20.63;;;14.88;;
72785;SDS011;60902;53.876;10.674;2023-03-03T00:05:47;20.52;;;14.52;;
72785;SDS011;60902;53.876;10.674;2023-03-03T00:05:58;19.85;;;14.00;;
72785;SDS011;60902;53.876;10.674;2023-03-03T00:06:11;19.65;;;14.27;;
72785;SDS011;60902;53.876;10.674;2023-03-03T00:06:22;19.92;;;14.68;;
72785;SDS011;60902;53.876;10.674;2023-03-03T00:06:34;20.25;;;14.52;;
72785;SDS011;60902;53.876;10.674;2023-03-03T00:06:46;20.65;;;14.73;;
72785;SDS011;60902;53.876;10.674;2023-03-03T00:06:57;20.38;;;14.60;;
72785;SDS011;60902;53.876;10.674;2023-03-03T00:07:10;21.00;;;14.77;;
72785;SDS011;60902;53.876;10.674;2023-03-03T00:07:21;20.13;;;13.98;;
72785;SDS011;60902;53.876;10.674;2023-03-03T00:07:32;19.75;;;13.82;;
72785;SDS011;60902;53.876;10.674;2023-03-03T00:07:43;19.88;;;14.02;;
72785;SDS011;60902;53.876;10.674;2023-03-03T00:07:55;20.67;;;14.52;;
72785;SDS011;60902;53.876;10.674;2023-03-03T00:08:06;20.55;;;14.45;;
72785;SDS011;60902;53.876;10.674;2023-03-03T00:08:17;20.40;;;14.07;;
72785;SDS011;60902;53.876;10.674;2023-03-03T00:08:29;20.87;;;14.17;;
72785;SDS011;60902;53.876;10.674;2023-03-03T00:08:42;20.77;;;13.80;;
72785;SDS011;60902;53.876;10.674;2023-03-03T00:08:53;21.35;;;14.18;;
72785;SDS011;60902;53.876;10.674;2023-03-03T00:09:03;21.10;;;14.43;;
72785;SDS011;60902;53.876;10.674;2023-03-03T00:09:16;20.75;;;14.60;;
72785;SDS011;60902;53.876;10.674;2023-03-03T00:09:27;20.48;;;14.23;;
72785;SDS011;60902;53.876;10.674;2023-03-03T00:09:38;20.35;;;13.90;;
72785;SDS011;60902;53.876;10.674;2023-03-03T00:09:48;21.43;;;14.13;;
72785;SDS011;60902;53.876;10.674;2023-03-03T00:10:01;20.58;;;13.88;;
72785;SDS011;60902;53.876;10.674;2023-03-03T00:10:13;21.08;;;14.82;;
72785;SDS011;60902;53.876;10.674;2023-03-03T00:10:24;21.50;;;15.07;;
72785;SDS011;60902;53.876;10.674;2023-03-03T00:10:37;21.17;;;14.85;;
72785;SDS011;60902;53.876;10.674;2023-03-03T00:10:48;21.05;;;14.23;;
72785;SDS011;60902;53.876;10.674;2023-03-03T00:10:59;20.27;;;14.02;;
72785;SDS011;60902;53.876;10.674;2023-03-03T00:11:12;19.98;;;14.05;;
72785;SDS011;60902;53.876;10.674;2023-03-03T00:11:23;20.20;;;13.82;;
72785;SDS011;60902;53.876;10.674;2023-03-03T00:11:35;20.10;;;13.55;;
72785;SDS011;60902;53.876;10.674;2023-03-03T00:11:46;21.00;;;13.80;;
72785;SDS011;60902;53.876;10.674;2023-03-03T00:12:10;21.07;;;13.83;;
72785;SDS011;60902;53.876;10.674;2023-03-03T00:12:32;21.63;;;14.07;;
72785;SDS011;60902;53.876;10.674;2023-03-03T00:12:48;21.65;;;14.50;;
72785;SDS011;60902;53.876;10.674;2023-03-03T00:13:00;21.17;;;14.43;;
72785;SDS011;60902;53.876;10.674;2023-03-03T00:13:12;20.63;;;14.10;;
72785;SDS011;60902;53.876;10.674;2023-03-03T00:13:26;20.23;;;14.27;;
72785;SDS011;60902;53.876;10.674;2023-03-03T00:13:42;20.27;;;14.65;;
72785;SDS011;60902;53.876;10.674;2023-03-03T00:13:56;20.60;;;14.45;;
72785;SDS011;60902;53.876;10.674;2023-03-03T00:14:12;20.58;;;14.63;;
72785;SDS011;60902;53.876;10.674;2023-03-03T00:14:28;20.92;;;15.15;;
72785;SDS011;60902;53.876;10.674;2023-03-03T00:14:41;21.10;;;15.02;;
72785;SDS011;60902;53.876;10.674;2023-03-03T00:14:52;20.75;;;14.95;;
72785;SDS011;60902;53.876;10.674;2023-03-03T00:15:11;19.98;;;14.07;;
72785;SDS011;60902;53.876;10.674;2023-03-03T00:15:25;19.45;;;14.10;;
72785;SDS011;60902;53.876;10.674;2023-03-03T00:15:37;19.80;;;13.95;;
72785;SDS011;60902;53.876;10.674;2023-03-03T00:15:48;19.33;;;13.55;;
72785;SDS011;60902;53.876;10.674;2023-03-03T00:16:10;20.05;;;13.77;;
72785;SDS011;60902;53.876;10.674;2023-03-03T00:16:24;20.33;;;14.15;;
72785;SDS011;60902;53.876;10.674;2023-03-03T00:16:38;20.33;;;14.38;;
72785;SDS011;60902;53.876;10.674;2023-03-03T00:16:49;20.67;;;14.82;;
72785;SDS011;60902;53.876;10.674;2023-03-03T00:17:00;20.92;;;14.90;;
72785;SDS011;60902;53.876;10.674;2023-03-03T00:17:24;20.08;;;14.02;;
72785;SDS011;60902;53.876;10.674;2023-03-03T00:17:37;20.17;;;14.30;;
72785;SDS011;60902;53.876;10.674;2023-03-03T00:17:48;21.02;;;14.75;;
72785;SDS011;60902;53.876;10.674;2023-03-03T00:18:00;21.17;;;14.80;;
72785;SDS011;60902;53.876;10.674;2023-03-03T00:18:29;21.48;;;14.32;;
72785;SDS011;60902;53.876;10.674;2023-03-03T00:18:45;21.70;;;15.00;;
72785;SDS011;60902;53.876;10.674;2023-03-03T00:18:57;20.65;;;14.85;;
72785;SDS011;60902;53.876;10.674;2023-03-03T00:19:11;20.60;;;14.70;;
72785;SDS011;60902;53.876;10.674;2023-03-03T00:19:24;21.20;;;15.10;;
72785;SDS011;60902;53.876;10.674;2023-03-03T00:19:35;21.05;;;14.73;;
72785;SDS011;60902;53.876;10.674;2023-03-03T00:19:50;20.75;;;14.75;;
72785;SDS011;60902;53.876;10.674;2023-03-03T00:20:02;19.70;;;14.23;;
72785;SDS011;60902;53.876;10.674;2023-03-03T00:20:38;20.55;;;13.60;;
72785;SDS011;60902;53.876;10.674;2023-03-03T00:20:51;20.27;;;13.73;;
72785;SDS011;60902;53.876;10.674;2023-03-03T00:21:05;20.08;;;14.27;;
72785;SDS011;60902;53.876;10.674;2023-03-03T00:21:44;20.25;;;14.40;;
72785;SDS011;60902;53.876;10.674;2023-03-03T00:21:56;20.20;;;13.98;;
72785;SDS011;60902;53.876;10.674;2023-03-03T00:22:12;19.90;;;13.60;;
72785;SDS011;60902;53.876;10.674;2023-03-03T00:22:27;20.17;;;13.93;;
72785;SDS011;60902;53.876;10.674;2023-03-03T00:22:40;21.50;;;14.00;;
72785;SDS011;60902;53.876;10.674;2023-03-03T00:22:51;22.23;;;14.70;;
72785;SDS011;60902;53.876;10.674;2023-03-03T00:23:12;21.88;;;14.73;;
72785;SDS011;60902;53.876;10.674;2023-03-03T00:23:29;21.42;;;14.48;;
72785;SDS011;60902;53.876;10.674;2023-03-03T00:23:44;20.42;;;13.82;;
72785;SDS011;60902;53.876;10.674;2023-03-03T00:23:58;20.15;;;13.88;;
72785;SDS011;60902;53.876;10.674;2023-03-03T00:24:24;21.50;;;14.23;;
72785;SDS011;60902;53.876;10.674;2023-03-03T00:24:45;20.83;;;13.48;;
72785;SDS011;60902;53.876;10.674;2023-03-03T00:24:58;20.90;;;13.85;;
72785;SDS011;60902;53.876;10.674;2023-03-03T00:25:20;21.13;;;14.52;;
72785;SDS011;60902;53.876;10.674;2023-03-03T00:25:37;21.02;;;14.30;;
72785;SDS011;60902;53.876;10.674;2023-03-03T00:25:54;21.33;;;14.48;;
72785;SDS011;60902;53.876;10.674;2023-03-03T00:26:14;21.00;;;14.45;;
72785;SDS011;60902;53.876;10.674;2023-03-03T00:26:30;20.95;;;14.65;;
72785;SDS011;60902;53.876;10.674;2023-03-03T00:26:46;20.75;;;14.73;;
72785;SDS011;60902;53.876;10.674;2023-03-03T00:26:59;21.13;;;14.77;;
72785;SDS011;60902;53.876;10.674;2023-03-03T00:27:20;20.85;;;14.68;;
72785;SDS011;60902;53.876;10.674;2023-03-03T00:27:39;20.15;;;13.48;;
72785;SDS011;60902;53.876;10.674;2023-03-03T00:27:49;20.13;;;13.63;;
72785;SDS011;60902;53.876;10.674;2023-03-03T00:28:01;19.40;;;13.77;;
72785;SDS011;60902;53.876;10.674;2023-03-03T00:28:23;20.00;;;14.18;;
72785;SDS011;60902;53.876;10.674;2023-03-03T00:28:40;20.83;;;14.63;;
72785;SDS011;60902;53.876;10.674;2023-03-03T00:28:54;21.00;;;14.35;;
72785;SDS011;60902;53.876;10.674;2023-03-03T00:29:18;20.63;;;13.82;;
72785;SDS011;60902;53.876;10.674;2023-03-03T00:29:38;20.77;;;14.25;;
72785;SDS011;60902;53.876;10.674;2023-03-03T00:29:56;20.02;;;13.85;;
72785;SDS011;60902;53.876;10.674;2023-03-03T00:30:16;20.30;;;13.85;;
72785;SDS011;60902;53.876;10.674;2023-03-03T00:30:32;20.45;;;13.85;;
72785;SDS011;60902;53.876;10.674;2023-03-03T00:30:43;20.42;;;13.77;;
72785;SDS011;60902;53.876;10.674;2023-03-03T00:30:55;22.45;;;14.65;;
72785;SDS011;60902;53.876;10.674;2023-03-03T00:31:11;23.48;;;15.10;;
72785;SDS011;60902;53.876;10.674;2023-03-03T00:31:28;21.10;;;14.05;;
72785;SDS011;60902;53.876;10.674;2023-03-03T00:31:42;19.65;;;13.38;;
72785;SDS011;60902;53.876;10.674;2023-03-03T00:31:53;18.52;;;13.02;;
72785;SDS011;60902;53.876;10.674;2023-03-03T00:32:35;21.58;;;14.20;;
72785;SDS011;60902;53.876;10.674;2023-03-03T00:32:52;21.35;;;14.43;;
72785;SDS011;60902;53.876;10.674;2023-03-03T00:33:06;20.83;;;14.15;;
72785;SDS011;60902;53.876;10.674;2023-03-03T00:33:29;21.33;;;14.18;;
72785;SDS011;60902;53.876;10.674;2023-03-03T00:33:42;21.17;;;14.38;;
72785;SDS011;60902;53.876;10.674;2023-03-03T00:33:56;20.52;;;14.77;;
72785;SDS011;60902;53.876;10.674;2023-03-03T00:34:24;21.42;;;14.20;;
72785;SDS011;60902;53.876;10.674;2023-03-03T00:34:35;21.83;;;14.23;;
72785;SDS011;60902;53.876;10.674;2023-03-03T00:34:47;21.98;;;14.60;;
72785;SDS011;60902;53.876;10.674;2023-03-03T00:35:07;21.30;;;14.57;;
72785;SDS011;60902;53.876;10.674;2023-03-03T00:35:32;22.17;;;14.93;;
72785;SDS011;60902;53.876;10.674;2023-03-03T00:35:44;22.42;;;15.02;;
72785;SDS011;60902;53.876;10.674;2023-03-03T00:35:55;21.50;;;14.63;;
72785;SDS011;60902;53.876;10.674;2023-03-03T00:36:20;20.67;;;14.45;;
72785;SDS011;60902;53.876;10.674;2023-03-03T00:36:40;22.00;;;14.25;;
72785;SDS011;60902;53.876;10.674;2023-03-03T00:36:52;21.00;;;13.90;;
72785;SDS011;60902;53.876;10.674;2023-03-03T00:37:10;20.90;;;14.35;;
72785;SDS011;60902;53.876;10.674;2023-03-03T00:37:39;20.50;;;14.57;;
72785;SDS011;60902;53.876;10.674;2023-03-03T00:37:53;20.15;;;14.48;;
72785;SDS011;60902;53.876;10.674;2023-03-03T00:38:09;20.55;;;14.48;;
72785;SDS011;60902;53.876;10.674;2023-03-03T00:38:23;21.52;;;15.07;;
72785;SDS011;60902;53.876;10.674;2023-03-03T00:38:36;22.48;;;15.38;;
72785;SDS011;60902;53.876;10.674;2023-03-03T00:38:47;21.65;;;14.70;;
72785;SDS011;60902;53.876;10.674;2023-03-03T00:38:59;21.05;;;14.15;;
72785;SDS011;60902;53.876;10.674;2023-03-03T00:39:28;20.58;;;14.02;;
72785;SDS011;60902;53.876;10.674;2023-03-03T00:39:43;22.00;;;14.85;;
72785;SDS011;60902;53.876;10.674;2023-03-03T00:39:57;21.88;;;15.07;;
72785;SDS011;60902;53.876;10.674;2023-03-03T00:40:30;19.65;;;13.68;;
72785;SDS011;60902;53.876;10.674;2023-03-03T00:40:44;20.50;;;14.50;;
72785;SDS011;60902;53.876;10.674;2023-03-03T00:40:56;21.67;;;14.93;;
72785;SDS011;60902;53.876;10.674;2023-03-03T00:41:13;20.85;;;14.07;;
72785;SDS011;60902;53.876;10.674;2023-03-03T00:41:32;19.98;;;13.13;;
72785;SDS011;60902;53.876;10.674;2023-03-03T00:41:46;21.65;;;14.00;;
72785;SDS011;60902;53.876;10.674;2023-03-03T00:41:58;22.05;;;14.50;;
72785;SDS011;60902;53.876;10.674;2023-03-03T00:42:09;21.30;;;14.57;;
72785;SDS011;60902;53.876;10.674;2023-03-03T00:42:22;20.90;;;14.13;;
72785;SDS011;60902;53.876;10.674;2023-03-03T00:42:33;20.90;;;14.18;;
72785;SDS011;60902;53.876;10.674;2023-03-03T00:42:47;20.95;;;14.18;;
72785;SDS011;60902;53.876;10.674;2023-03-03T00:43:01;20.80;;;13.98;;
72785;SDS011;60902;53.876;10.674;2023-03-03T00:43:22;20.48;;;13.93;;
72785;SDS011;60902;53.876;10.674;2023-03-03T00:43:34;21.17;;;14.23;;
72785;SDS011;60902;53.876;10.674;2023-03-03T00:43:45;22.02;;;14.55;;
72785;SDS011;60902;53.876;10.674;2023-03-03T00:43:56;23.02;;;14.40;;
72785;SDS011;60902;53.876;10.674;2023-03-03T00:44:54;21.02;;;13.75;;
72785;SDS011;60902;53.876;10.674;2023-03-03T00:45:15;20.38;;;13.43;;
72785;SDS011;60902;53.876;10.674;2023-03-03T00:45:36;20.45;;;13.93;;
72785;SDS011;60902;53.876;10.674;2023-03-03T00:45:54;19.92;;;14.38;;
72785;SDS011;60902;53.876;10.674;2023-03-03T00:46:07;20.10;;;14.07;;
72785;SDS011;60902;53.876;10.674;2023-03-03T00:46:19;20.10;;;14.07;;
72785;SDS011;60902;53.876;10.674;2023-03-03T00:46:32;19.67;;;14.13;;
72785;SDS011;60902;53.876;10.674;2023-03-03T00:46:46;20.55;;;14.52;;
72785;SDS011;60902;53.876;10.674;2023-03-03T00:46:57;21.33;;;14.63;;
72785;SDS011;60902;53.876;10.674;2023-03-03T00:47:24;21.92;;;14.57;;
72785;SDS011;60902;53.876;10.674;2023-03-03T00:47:39;21.38;;;14.55;;
72785;SDS011;60902;53.876;10.674;2023-03-03T00:47:54;20.15;;;14.05;;
72785;SDS011;60902;53.876;10.674;2023-03-03T00:48:14;20.67;;;13.93;;
72785;SDS011;60902;53.876;10.674;2023-03-03T00:48:39;21.48;;;15.02;;
72785;SDS011;60902;53.876;10.674;2023-03-03T00:48:52;21.67;;;14.55;;
72785;SDS011;60902;53.876;10.674;2023-03-03T00:49:07;21.45;;;13.73;;
72785;SDS011;60902;53.876;10.674;2023-03-03T00:49:32;22.30;;;14.07;;
72785;SDS011;60902;53.876;10.674;2023-03-03T00:49:44;20.98;;;13.68;;
72785;SDS011;60902;53.876;10.674;2023-03-03T00:49:59;20.05;;;13.38;;
72785;SDS011;60902;53.876;10.674;2023-03-03T00:50:34;21.52;;;14.68;;
72785;SDS011;60902;53.876;10.674;2023-03-03T00:50:49;22.02;;;15.02;;
72785;SDS011;60902;53.876;10.674;2023-03-03T00:51:01;22.27;;;14.82;;
72785;SDS011;60902;53.876;10.674;2023-03-03T00:51:24;21.13;;;13.68;;
72785;SDS011;60902;53.876;10.674;2023-03-03T00:51:37;21.20;;;14.48;;
72785;SDS011;60902;53.876;10.674;2023-03-03T00:51:48;22.30;;;14.95;;
72785;SDS011;60902;53.876;10.674;2023-03-03T00:51:59;22.30;;;15.18;;
72785;SDS011;60902;53.876;10.674;2023-03-03T00:52:11;21.38;;;14.43;;
72785;SDS011;60902;53.876;10.674;2023-03-03T00:52:26;19.90;;;14.10;;
72785;SDS011;60902;53.876;10.674;2023-03-03T00:52:38;20.65;;;13.82;;
72785;SDS011;60902;53.876;10.674;2023-03-03T00:52:52;21.02;;;14.07;;
72785;SDS011;60902;53.876;10.674;2023-03-03T00:53:10;21.35;;;13.98;;
72785;SDS011;60902;53.876;10.674;2023-03-03T00:53:24;20.63;;;13.75;;
72785;SDS011;60902;53.876;10.674;2023-03-03T00:53:36;19.98;;;13.93;;
72785;SDS011;60902;53.876;10.674;2023-03-03T00:53:47;20.48;;;14.15;;
72785;SDS011;60902;53.876;10.674;2023-03-03T00:53:58;20.83;;;13.57;;
72785;SDS011;60902;53.876;10.674;2023-03-03T00:54:09;21.08;;;13.50;;
72785;SDS011;60902;53.876;10.674;2023-03-03T00:54:21;20.85;;;13.63;;
72785;SDS011;60902;53.876;10.674;2023-03-03T00:54:31;20.95;;;14.45;;
72785;SDS011;60902;53.876;10.674;2023-03-03T00:54:42;21.00;;;14.57;;
72785;SDS011;60902;53.876;10.674;2023-03-03T00:54:53;21.23;;;14.57;;
72785;SDS011;60902;53.876;10.674;2023-03-03T00:55:07;20.95;;;14.32;;
72785;SDS011;60902;53.876;10.674;2023-03-03T00:55:18;20.05;;;13.88;;
72785;SDS011;60902;53.876;10.674;2023-03-03T00:55:29;19.83;;;13.57;;
72785;SDS011;60902;53.876;10.674;2023-03-03T00:55:42;20.38;;;13.45;;
72785;SDS011;60902;53.876;10.674;2023-03-03T00:55:54;20.05;;;13.52;;
72785;SDS011;60902;53.876;10.674;2023-03-03T00:56:06;20.02;;;13.73;;
72785;SDS011;60902;53.876;10.674;2023-03-03T00:56:17;20.63;;;14.13;;
72785;SDS011;60902;53.876;10.674;2023-03-03T00:56:28;21.45;;;14.48;;
72785;SDS011;60902;53.876;10.674;2023-03-03T00:56:40;20.80;;;14.27;;
72785;SDS011;60902;53.876;10.674;2023-03-03T00:56:51;21.40;;;14.25;;
72785;SDS011;60902;53.876;10.674;2023-03-03T00:57:02;22.05;;;14.98;;
72785;SDS011;60902;53.876;10.674;2023-03-03T00:57:15;22.00;;;14.80;;
72785;SDS011;60902;53.876;10.674;2023-03-03T00:57:26;21.38;;;14.40;;
72785;SDS011;60902;53.876;10.674;2023-03-03T00:57:36;22.08;;;14.95;;
72785;SDS011;60902;53.876;10.674;2023-03-03T00:57:50;21.77;;;14.70;;
72785;SDS011;60902;53.876;10.674;2023-03-03T00:58:01;21.08;;;14.50;;
72785;SDS011;60902;53.876;10.674;2023-03-03T00:58:12;20.95;;;14.38;;
72785;SDS011;60902;53.876;10.674;2023-03-03T00:58:24;20.85;;;14.25;;
72785;SDS011;60902;53.876;10.674;2023-03-03T00:58:36;20.20;;;13.70;;
72785;SDS011;60902;53.876;10.674;2023-03-03T00:58:48;20.13;;;13.57;;
72785;SDS011;60902;53.876;10.674;2023-03-03T00:58:59;21.02;;;13.82;;
72785;SDS011;60902;53.876;10.674;2023-03-03T00:59:10;20.48;;;13.93;;
72785;SDS011;60902;53.876;10.674;2023-03-03T00:59:21;20.42;;;13.73;;
72785;SDS011;60902;53.876;10.674;2023-03-03T00:59:32;20.73;;;13.93;;
72785;SDS011;60902;53.876;10.674;2023-03-03T00:59:43;21.60;;;14.25;;
72785;SDS011;60902;53.876;10.674;2023-03-03T00:59:54;21.63;;;14.15;;
72785;SDS011;60902;53.876;10.674;2023-03-03T01:00:05;21.85;;;14.18;;
72785;SDS011;60902;53.876;10.674;2023-03-03T01:00:18;21.05;;;14.18;;
72785;SDS011;60902;53.876;10.674;2023-03-03T01:00:29;19.98;;;13.68;;
72785;SDS011;60902;53.876;10.674;2023-03-03T01:00:41;20.15;;;13.68;;
72785;SDS011;60902;53.876;10.674;2023-03-03T01:00:53;21.15;;;14.05;;
72785;SDS011;60902;53.876;10.674;2023-03-03T01:01:05;21.67;;;14.35;;
72785;SDS011;60902;53.876;10.674;2023-03-03T01:01:16;21.77;;;14.43;;
72785;SDS011;60902;53.876;10.674;2023-03-03T01:01:28;21.00;;;14.18;;
72785;SDS011;60902;53.876;10.674;2023-03-03T01:01:39;20.55;;;13.82;;
72785;SDS011;60902;53.876;10.674;2023-03-03T01:01:49;20.67;;;13.53;;
72785;SDS011;60902;53.876;10.674;2023-03-03T01:02:02;21.57;;;13.67;;
72785;SDS011;60902;53.876;10.674;2023-03-03T01:02:13;22.55;;;13.57;;
72785;SDS011;60902;53.876;10.674;2023-03-03T01:02:24;22.02;;;13.68;;
72785;SDS011;60902;53.876;10.674;2023-03-03T01:02:35;19.75;;;13.48;;
72785;SDS011;60902;53.876;10.674;2023-03-03T01:02:46;20.33;;;13.80;;
72785;SDS011;60902;53.876;10.674;2023-03-03T01:02:58;20.88;;;14.00;;
72785;SDS011;60902;53.876;10.674;2023-03-03T01:03:13;21.92;;;14.02;;
72785;SDS011;60902;53.876;10.674;2023-03-03T01:03:26;21.52;;;14.10;;
72785;SDS011;60902;53.876;10.674;2023-03-03T01:03:37;21.10;;;14.33;;
72785;SDS011;60902;53.876;10.674;2023-03-03T01:03:48;21.10;;;14.50;;
72785;SDS011;60902;53.876;10.674;2023-03-03T01:03:59;21.52;;;14.48;;
72785;SDS011;60902;53.876;10.674;2023-03-03T01:04:09;20.73;;;14.02;;
72785;SDS011;60902;53.876;10.674;2023-03-03T01:04:20;20.65;;;13.90;;
72785;SDS011;60902;53.876;10.674;2023-03-03T01:04:31;19.88;;;14.05;;
72785;SDS011;60902;53.876;10.674;2023-03-03T01:04:42;19.85;;;14.32;;
72785;SDS011;60902;53.876;10.674;2023-03-03T01:04:58;21.08;;;14.73;;
72785;SDS011;60902;53.876;10.674;2023-03-03T01:05:08;22.17;;;14.32;;
72785;SDS011;60902;53.876;10.674;2023-03-03T01:05:22;21.65;;;14.20;;
72785;SDS011;60902;53.876;10.674;2023-03-03T01:05:33;20.70;;;14.13;;
72785;SDS011;60902;53.876;10.674;2023-03-03T01:05:45;20.67;;;14.13;;
72785;SDS011;60902;53.876;10.674;2023-03-03T01:05:57;21.75;;;14.48;;
72785;SDS011;60902;53.876;10.674;2023-03-03T01:06:08;22.13;;;14.65;;
72785;SDS011;60902;53.876;10.674;2023-03-03T01:06:19;21.88;;;14.63;;
72785;SDS011;60902;53.876;10.674;2023-03-03T01:06:30;20.65;;;13.95;;
72785;SDS011;60902;53.876;10.674;2023-03-03T01:06:42;20.83;;;13.73;;
72785;SDS011;60902;53.876;10.674;2023-03-03T01:06:53;21.13;;;13.57;;
72785;SDS011;60902;53.876;10.674;2023-03-03T01:07:05;21.90;;;14.20;;
72785;SDS011;60902;53.876;10.674;2023-03-03T01:07:15;23.10;;;14.50;;
72785;SDS011;60902;53.876;10.674;2023-03-03T01:07:27;23.13;;;14.63;;
72785;SDS011;60902;53.876;10.674;2023-03-03T01:07:40;22.98;;;14.40;;
72785;SDS011;60902;53.876;10.674;2023-03-03T01:07:50;22.08;;;14.45;;
72785;SDS011;60902;53.876;10.674;2023-03-03T01:08:02;22.17;;;14.38;;
72785;SDS011;60902;53.876;10.674;2023-03-03T01:08:14;21.92;;;13.88;;
72785;SDS011;60902;53.876;10.674;2023-03-03T01:08:26;20.50;;;13.50;;
72785;SDS011;60902;53.876;10.674;2023-03-03T01:08:37;21.25;;;14.05;;
72785;SDS011;60902;53.876;10.674;2023-03-03T01:08:48;21.95;;;14.23;;
72785;SDS011;60902;53.876;10.674;2023-03-03T01:08:59;21.25;;;13.93;;
72785;SDS011;60902;53.876;10.674;2023-03-03T01:09:10;20.45;;;13.55;;
72785;SDS011;60902;53.876;10.674;2023-03-03T01:09:21;21.00;;;13.75;;
72785;SDS011;60902;53.876;10.674;2023-03-03T01:09:32;21.17;;;14.05;;
72785;SDS011;60902;53.876;10.674;2023-03-03T01:09:43;20.77;;;13.77;;
72785;SDS011;60902;53.876;10.674;2023-03-03T01:09:54;20.65;;;13.85;;
72785;SDS011;60902;53.876;10.674;2023-03-03T01:10:05;21.58;;;13.80;;
72785;SDS011;60902;53.876;10.674;2023-03-03T01:10:18;21.48;;;13.88;;
72785;SDS011;60902;53.876;10.674;2023-03-03T01:10:30;21.55;;;13.93;;
72785;SDS011;60902;53.876;10.674;2023-03-03T01:10:44;21.65;;;13.93;;
72785;SDS011;60902;53.876;10.674;2023-03-03T01:11:02;21.48;;;14.18;;
72785;SDS011;60902;53.876;10.674;2023-03-03T01:11:19;21.33;;;13.93;;
72785;SDS011;60902;53.876;10.674;2023-03-03T01:11:34;21.15;;;13.88;;
72785;SDS011;60902;53.876;10.674;2023-03-03T01:11:45;21.00;;;13.75;;
72785;SDS011;60902;53.876;10.674;2023-03-03T01:11:56;21.13;;;13.77;;
72785;SDS011;60902;53.876;10.674;2023-03-03T01:12:07;20.98;;;14.10;;
72785;SDS011;60902;53.876;10.674;2023-03-03T01:12:20;21.20;;;14.32;;
72785;SDS011;60902;53.876;10.674;2023-03-03T01:12:30;20.98;;;14.20;;
72785;SDS011;60902;53.876;10.674;2023-03-03T01:12:41;21.90;;;14.30;;
72785;SDS011;60902;53.876;10.674;2023-03-03T01:12:54;22.48;;;14.73;;
72785;SDS011;60902;53.876;10.674;2023-03-03T01:13:06;21.58;;;15.07;;
72785;SDS011;60902;53.876;10.674;2023-03-03T01:13:19;21.85;;;15.32;;
72785;SDS011;60902;53.876;10.674;2023-03-03T01:13:33;21.08;;;14.68;;
72785;SDS011;60902;53.876;10.674;2023-03-03T01:13:45;20.67;;;13.93;;
72785;SDS011;60902;53.876;10.674;2023-03-03T01:13:57;20.55;;;13.95;;
72785;SDS011;60902;53.876;10.674;2023-03-03T01:14:08;20.48;;;13.45;;
72785;SDS011;60902;53.876;10.674;2023-03-03T01:14:19;21.48;;;14.10;;
72785;SDS011;60902;53.876;10.674;2023-03-03T01:14:30;21.15;;;13.93;;
72785;SDS011;60902;53.876;10.674;2023-03-03T01:14:41;20.77;;;13.85;;
72785;SDS011;60902;53.876;10.674;2023-03-03T01:14:54;21.30;;;13.80;;
72785;SDS011;60902;53.876;10.674;2023-03-03T01:15:07;21.50;;;14.13;;
72785;SDS011;60902;53.876;10.674;2023-03-03T01:15:21;20.27;;;13.82;;
72785;SDS011;60902;53.876;10.674;2023-03-03T01:15:32;20.50;;;14.07;;
72785;SDS011;60902;53.876;10.674;2023-03-03T01:15:43;19.98;;;13.93;;
72785;SDS011;60902;53.876;10.674;2023-03-03T01:15:54;19.35;;;13.57;;
72785;SDS011;60902;53.876;10.674;2023-03-03T01:16:05;19.08;;;13.30;;
72785;SDS011;60902;53.876;10.674;2023-03-03T01:16:17;20.92;;;13.82;;
72785;SDS011;60902;53.876;10.674;2023-03-03T01:16:28;21.42;;;14.02;;
72785;SDS011;60902;53.876;10.674;2023-03-03T01:16:40;22.38;;;14.55;;
72785;SDS011;60902;53.876;10.674;2023-03-03T01:16:51;21.80;;;14.88;;
72785;SDS011;60902;53.876;10.674;2023-03-03T01:17:03;21.20;;;14.55;;
72785;SDS011;60902;53.876;10.674;2023-03-03T01:17:14;20.88;;;13.85;;
72785;SDS011;60902;53.876;10.674;2023-03-03T01:17:25;21.25;;;14.07;;
72785;SDS011;60902;53.876;10.674;2023-03-03T01:17:36;21.05;;;14.38;;
72785;SDS011;60902;53.876;10.674;2023-03-03T01:17:49;21.65;;;14.50;;
72785;SDS011;60902;53.876;10.674;2023-03-03T01:18:00;20.48;;;13.93;;
72785;SDS011;60902;53.876;10.674;2023-03-03T01:18:12;21.60;;;14.77;;
72785;SDS011;60902;53.876;10.674;2023-03-03T01:18:24;21.20;;;14.38;;
72785;SDS011;60902;53.876;10.674;2023-03-03T01:18:35;21.40;;;13.77;;
72785;SDS011;60902;53.876;10.674;2023-03-03T01:18:46;20.30;;;13.05;;
72785;SDS011;60902;53.876;10.674;2023-03-03T01:18:58;20.95;;;13.60;;
72785;SDS011;60902;53.876;10.674;2023-03-03T01:19:08;21.23;;;14.07;;
72785;SDS011;60902;53.876;10.674;2023-03-03T01:19:19;21.42;;;14.40;;
72785;SDS011;60902;53.876;10.674;2023-03-03T01:19:30;20.95;;;14.10;;
72785;SDS011;60902;53.876;10.674;2023-03-03T01:19:41;21.00;;;13.88;;
72785;SDS011;60902;53.876;10.674;2023-03-03T01:19:52;20.17;;;13.13;;